Weather at Fort Nelson Airport

Public forecast

Using degrees Celsius for public forecast. Weather courtesy of forecast.io.

Current aviation weather report (METAR) for Fort Nelson Airport

Retrieved 2021/01/27 01:00 UTC (53 minutes ago):

CYYE 270100Z 33005KT 290V350 15SM -SN BKN051 OVC100 M21/M25 A3018 RMK SC5AC3 SLP264

Aviation forecast (TAF) for Fort Nelson Airport

Retrieved 2021-01-27 01:39 UTC (14 minutes ago):

TAF CYYE 270038Z 2701/2713 32007KT P6SM -SN SCT050 BKN100 TEMPO 2701/2707 3SM -SN OVC050 FM270700 32007KT P6SM -SN BKN040 OVC070 TEMPO 2707/2713 2SM -SN VV020 RMK NXT FCST BY 270700Z